RYR174 EPLB-EFHK
Flight info
| Callsign | RYR174 |
|---|---|
| Flight time | N/A |
| Altitude | 36000 |
| Route | LUGUG DCT ETUBO DCT EVODO DCT BOKSU DCT NAPOT/N0459F370 DCT ELING/N0456F360 DCT NEVTO/N0458F370 DCT ORTAX |
| Aircraft | B738/M-SDE2E3FGHIRWXY/LB1 |
Departure
| Time | 2026-04-21 16:05 |
|---|---|
| Airport | Lublin Airport (EPLB) |
Arrival
| Time | N/A |
|---|---|
| Airport | Helsinki Vantaa Airport (EFHK) |
| Time | Latitude | Longitude | Altitude | Speed | Heading |
|---|---|---|---|---|---|
| 2026-04-21 15:46 | 51.23667 | 22.71540 | 636 ft | 0 kts | 165° |
| 2026-04-21 15:58 | 51.23678 | 22.71535 | 636 ft | 2 kts | 165° |
| 2026-04-21 15:58 | 51.23693 | 22.71529 | 636 ft | 2 kts | 165° |
| 2026-04-21 15:58 | 51.23708 | 22.71523 | 636 ft | 2 kts | 182° |
| 2026-04-21 15:58 | 51.23722 | 22.71530 | 636 ft | 2 kts | 211° |
| 2026-04-21 15:59 | 51.23733 | 22.71545 | 636 ft | 2 kts | 238° |
| 2026-04-21 15:59 | 51.23737 | 22.71559 | 636 ft | 0 kts | 255° |
| 2026-04-21 15:59 | 51.23738 | 22.71570 | 636 ft | 0 kts | 258° |
| 2026-04-21 16:01 | 51.23734 | 22.71542 | 636 ft | 7 kts | 258° |
| 2026-04-21 16:01 | 51.23743 | 22.71460 | 636 ft | 9 kts | 323° |
| 2026-04-21 16:01 | 51.23803 | 22.71431 | 636 ft | 8 kts | 347° |
| 2026-04-21 16:02 | 51.23857 | 22.71411 | 636 ft | 7 kts | 347° |
| 2026-04-21 16:02 | 51.23922 | 22.71388 | 636 ft | 13 kts | 347° |
| 2026-04-21 16:02 | 51.24010 | 22.71385 | 636 ft | 12 kts | 37° |
| 2026-04-21 16:02 | 51.24041 | 22.71507 | 636 ft | 12 kts | 75° |
| 2026-04-21 16:03 | 51.24072 | 22.71714 | 636 ft | 22 kts | 78° |
| 2026-04-21 16:03 | 51.24106 | 22.71961 | 636 ft | 25 kts | 78° |
| 2026-04-21 16:03 | 51.24152 | 22.72291 | 636 ft | 34 kts | 76° |
| 2026-04-21 16:03 | 51.24209 | 22.72672 | 636 ft | 34 kts | 75° |
| 2026-04-21 16:04 | 51.24269 | 22.73009 | 636 ft | 17 kts | 71° |
| 2026-04-21 16:04 | 51.24285 | 22.73084 | 636 ft | 4 kts | 116° |
| 2026-04-21 16:04 | 51.24263 | 22.73066 | 636 ft | 5 kts | 256° |
| 2026-04-21 16:04 | 51.24253 | 22.73002 | 636 ft | 10 kts | 257° |
| 2026-04-21 16:05 | 51.24193 | 22.72574 | 636 ft | 76 kts | 257° |
| 2026-04-21 16:05 | 51.24020 | 22.71380 | 636 ft | 140 kts | 257° |
| 2026-04-21 16:05 | 51.23763 | 22.69620 | 718 ft | 183 kts | 258° |
| 2026-04-21 16:05 | 51.23499 | 22.67618 | 1404 ft | 185 kts | 273° |
| 2026-04-21 16:06 | 51.23904 | 22.65732 | 1946 ft | 187 kts | 319° |
| 2026-04-21 16:06 | 51.24984 | 22.64804 | 2702 ft | 180 kts | 347° |
| 2026-04-21 16:06 | 51.26225 | 22.64517 | 3353 ft | 182 kts | 1° |
| 2026-04-21 16:06 | 51.27486 | 22.64831 | 3843 ft | 193 kts | 20° |
| 2026-04-21 16:07 | 51.28667 | 22.65997 | 4270 ft | 211 kts | 43° |
| 2026-04-21 16:07 | 51.29504 | 22.68058 | 4743 ft | 234 kts | 68° |
| 2026-04-21 16:07 | 51.29693 | 22.70702 | 5320 ft | 254 kts | 97° |
| 2026-04-21 16:07 | 51.28952 | 22.73316 | 5928 ft | 272 kts | 126° |
| 2026-04-21 16:08 | 51.27021 | 22.78427 | 7471 ft | 271 kts | 90° |
| 2026-04-21 16:08 | 51.27369 | 22.81261 | 8271 ft | 265 kts | 58° |
| 2026-04-21 16:08 | 51.28630 | 22.83349 | 9094 ft | 262 kts | 32° |
| 2026-04-21 16:09 | 51.30167 | 22.84794 | 9918 ft | 263 kts | 31° |
| 2026-04-21 16:09 | 51.31669 | 22.86484 | 10631 ft | 269 kts | 40° |
| 2026-04-21 16:09 | 51.33040 | 22.88679 | 11097 ft | 284 kts | 48° |
| 2026-04-21 16:09 | 51.34304 | 22.91174 | 11528 ft | 298 kts | 51° |
| 2026-04-21 16:10 | 51.35592 | 22.93881 | 12026 ft | 310 kts | 51° |
| 2026-04-21 16:10 | 51.36913 | 22.96563 | 12791 ft | 313 kts | 48° |
| 2026-04-21 16:10 | 51.38533 | 22.98838 | 13534 ft | 315 kts | 31° |
| 2026-04-21 16:10 | 51.40600 | 23.00068 | 14295 ft | 319 kts | 13° |
| 2026-04-21 16:11 | 51.42820 | 23.00299 | 14995 ft | 325 kts | 2° |
| 2026-04-21 16:11 | 51.45065 | 23.00203 | 15643 ft | 329 kts | 1° |
| 2026-04-21 16:11 | 51.47358 | 23.00084 | 16349 ft | 332 kts | 1° |
| 2026-04-21 16:11 | 51.49686 | 22.99973 | 17036 ft | 334 kts | 1° |
| 2026-04-21 16:12 | 51.52022 | 22.99873 | 17690 ft | 338 kts | 1° |
| 2026-04-21 16:12 | 51.54364 | 22.99781 | 18336 ft | 340 kts | 1° |
| 2026-04-21 16:12 | 51.56711 | 22.99693 | 18990 ft | 342 kts | 1° |
| 2026-04-21 16:12 | 51.59111 | 22.99604 | 19591 ft | 346 kts | 1° |
| 2026-04-21 16:13 | 51.61504 | 22.99515 | 20188 ft | 349 kts | 1° |
| 2026-04-21 16:13 | 51.63950 | 22.99424 | 20766 ft | 352 kts | 1° |
| 2026-04-21 16:13 | 51.66391 | 22.99332 | 21345 ft | 355 kts | 1° |
| 2026-04-21 16:13 | 51.68867 | 22.99240 | 21905 ft | 358 kts | 1° |
| 2026-04-21 16:14 | 51.71376 | 22.99146 | 22417 ft | 362 kts | 1° |
| 2026-04-21 16:14 | 51.73856 | 22.99052 | 22971 ft | 364 kts | 1° |
| 2026-04-21 16:14 | 51.76380 | 22.98957 | 23490 ft | 366 kts | 1° |
| 2026-04-21 16:14 | 51.78965 | 22.98860 | 23998 ft | 369 kts | 1° |
| 2026-04-21 16:15 | 51.81516 | 22.98764 | 24497 ft | 372 kts | 1° |
| 2026-04-21 16:15 | 51.84135 | 22.98665 | 24947 ft | 375 kts | 1° |
| 2026-04-21 16:15 | 51.86731 | 22.98565 | 25374 ft | 378 kts | 1° |
| 2026-04-21 16:15 | 51.89324 | 22.98465 | 25777 ft | 381 kts | 1° |
| 2026-04-21 16:16 | 51.91960 | 22.98363 | 26189 ft | 384 kts | 1° |
| 2026-04-21 16:16 | 51.94674 | 22.98258 | 26612 ft | 386 kts | 1° |
| 2026-04-21 16:16 | 51.97381 | 22.98155 | 26995 ft | 389 kts | 1° |
| 2026-04-21 16:16 | 52.00061 | 22.98053 | 27363 ft | 391 kts | 1° |
| 2026-04-21 16:17 | 52.02798 | 22.97949 | 27712 ft | 395 kts | 1° |
| 2026-04-21 16:17 | 52.05541 | 22.97845 | 28080 ft | 397 kts | 1° |
| 2026-04-21 16:17 | 52.08286 | 22.97739 | 28470 ft | 399 kts | 1° |
| 2026-04-21 16:17 | 52.11079 | 22.97633 | 28794 ft | 402 kts | 1° |
| 2026-04-21 16:18 | 52.13884 | 22.97526 | 29163 ft | 404 kts | 1° |
| 2026-04-21 16:18 | 52.16676 | 22.97419 | 29505 ft | 406 kts | 1° |
| 2026-04-21 16:18 | 52.19512 | 22.97312 | 29826 ft | 409 kts | 1° |
| 2026-04-21 16:18 | 52.22376 | 22.97203 | 30154 ft | 412 kts | 1° |
| 2026-04-21 16:19 | 52.25238 | 22.97094 | 30477 ft | 414 kts | 1° |